createdAt,value
2018-10-19T00:04:05.615Z,1.73
2018-10-19T00:09:10.595Z,1.37
2018-10-19T00:14:14.160Z,1.60
2018-10-19T00:19:17.778Z,1.23
2018-10-19T00:24:21.495Z,1.87
2018-10-19T00:29:25.185Z,1.70
2018-10-19T00:34:28.822Z,1.67
2018-10-19T00:39:32.483Z,1.73
2018-10-19T00:44:36.150Z,1.50
2018-10-19T00:49:39.791Z,1.90
2018-10-19T00:54:43.613Z,1.43
2018-10-19T00:59:47.237Z,1.43
2018-10-19T01:04:50.948Z,1.30
2018-10-19T01:09:54.579Z,1.30
2018-10-19T01:14:58.238Z,1.77
2018-10-19T01:20:01.876Z,1.73
2018-10-19T01:25:06.143Z,1.33
2018-10-19T01:30:10.277Z,1.50
2018-10-19T01:35:14.101Z,2.03
2018-10-19T01:40:17.592Z,1.90
2018-10-19T01:45:21.208Z,1.03
2018-10-19T01:50:24.835Z,1.73
2018-10-19T01:55:28.559Z,1.53
2018-10-19T02:00:32.195Z,1.80
2018-10-19T02:05:36.096Z,1.27
2018-10-19T02:10:40.331Z,1.60
2018-10-19T02:15:44.055Z,1.77
2018-10-19T02:20:47.657Z,2.03
2018-10-19T02:25:51.396Z,1.80
2018-10-19T02:30:55.013Z,1.80
2018-10-19T02:35:58.723Z,1.80
2018-10-19T02:41:02.406Z,1.70
2018-10-19T02:46:06.090Z,1.47
2018-10-19T02:51:09.855Z,1.77
2018-10-19T02:56:13.460Z,2.13
2018-10-19T03:01:17.123Z,1.77
2018-10-19T03:06:20.768Z,1.53
2018-10-19T03:11:24.502Z,1.43
2018-10-19T03:16:28.077Z,2.90
2018-10-19T03:21:31.693Z,1.83
2018-10-19T03:26:35.323Z,1.63
2018-10-19T03:31:38.994Z,2.17
2018-10-19T03:36:42.733Z,1.47
2018-10-19T03:41:46.365Z,1.50
2018-10-19T03:46:49.987Z,1.47
2018-10-19T03:51:53.890Z,1.83
2018-10-19T03:56:57.568Z,1.90
2018-10-19T04:02:01.186Z,2.30
2018-10-19T04:07:05.271Z,2.07
2018-10-19T04:12:08.921Z,2.40
2018-10-19T04:17:12.787Z,2.20
2018-10-19T04:22:16.336Z,1.87
2018-10-19T04:27:20.131Z,1.97
2018-10-19T04:32:27.228Z,1.80
2018-10-19T04:37:30.879Z,3.33
2018-10-19T04:42:34.590Z,1.30
2018-10-19T04:47:38.291Z,3.03
2018-10-19T04:52:41.848Z,1.53
2018-10-19T04:57:45.567Z,1.57
2018-10-19T05:02:50.304Z,1.63
2018-10-19T05:07:53.933Z,1.93
2018-10-19T05:12:57.552Z,1.60
2018-10-19T05:18:01.155Z,2.20
2018-10-19T05:23:05.310Z,1.70
2018-10-19T05:28:08.956Z,2.30
2018-10-19T05:33:12.624Z,1.50
2018-10-19T05:38:16.292Z,1.90
2018-10-19T05:43:19.960Z,1.50
2018-10-19T05:48:24.000Z,2.13
2018-10-19T05:53:27.707Z,2.73
2018-10-19T05:58:31.498Z,1.57
2018-10-19T06:03:35.946Z,2.10
2018-10-19T06:08:39.606Z,2.37
2018-10-19T06:13:43.319Z,1.90
2018-10-19T06:18:46.904Z,2.33
2018-10-19T06:23:50.542Z,1.87
2018-10-19T06:28:54.446Z,2.00
2018-10-19T06:33:58.237Z,2.43
2018-10-19T06:39:01.883Z,2.47
2018-10-19T06:44:05.856Z,2.47
2018-10-19T06:49:09.547Z,2.27
2018-10-19T06:54:13.837Z,2.13
2018-10-19T06:59:17.584Z,2.57
2018-10-19T07:04:21.670Z,2.13
2018-10-19T07:09:25.471Z,2.70
2018-10-19T07:14:29.163Z,2.43
2018-10-19T07:19:32.844Z,3.30
2018-10-19T07:24:36.540Z,2.33
2018-10-19T07:29:40.239Z,2.90
2018-10-19T07:34:43.971Z,2.27
2018-10-19T07:39:47.604Z,2.80
2018-10-19T07:44:51.323Z,2.70
2018-10-19T07:49:55.020Z,2.60
2018-10-19T07:54:58.584Z,2.50
2018-10-19T08:00:02.223Z,2.27
2018-10-19T08:05:06.682Z,3.50
2018-10-19T08:10:10.872Z,2.47
2018-10-19T08:15:14.560Z,2.80
2018-10-19T08:20:18.230Z,2.70
2018-10-19T08:25:21.810Z,3.33
2018-10-19T08:30:25.433Z,2.80
2018-10-19T08:35:29.073Z,2.40
2018-10-19T08:40:32.872Z,2.63
2018-10-19T08:45:36.556Z,2.27
2018-10-19T08:50:40.339Z,2.20
2018-10-19T08:55:43.995Z,3.73
2018-10-19T09:00:47.648Z,2.40
2018-10-19T09:05:51.352Z,3.03
2018-10-19T09:10:55.066Z,2.67
2018-10-19T09:15:59.080Z,2.40
2018-10-19T09:21:02.816Z,2.20
2018-10-19T09:26:06.423Z,2.13
2018-10-19T09:31:10.190Z,2.30
2018-10-19T09:36:13.892Z,3.87
2018-10-19T09:41:17.487Z,1.70
2018-10-19T09:46:21.055Z,1.67
2018-10-19T09:51:24.694Z,2.10
2018-10-19T09:56:28.435Z,2.93
2018-10-19T10:01:32.360Z,1.93
2018-10-19T10:06:35.996Z,1.67
2018-10-19T10:11:39.899Z,1.60
2018-10-19T10:16:43.617Z,1.60
2018-10-19T10:21:47.242Z,1.43
2018-10-19T10:26:50.866Z,1.50
2018-10-19T10:31:54.505Z,1.60
2018-10-19T10:36:58.204Z,1.70
2018-10-19T10:42:01.841Z,1.80
2018-10-19T10:47:05.818Z,1.70
2018-10-19T10:52:09.342Z,2.03
2018-10-19T10:57:12.932Z,2.00
2018-10-19T11:02:16.588Z,1.77
2018-10-19T11:07:20.473Z,1.57
2018-10-19T11:12:24.842Z,2.03
2018-10-19T11:17:28.559Z,1.50
2018-10-19T11:22:32.227Z,1.70
2018-10-19T11:27:35.855Z,1.60
2018-10-19T11:32:39.484Z,1.77
2018-10-19T11:37:43.240Z,1.10
2018-10-19T11:42:46.736Z,1.67
2018-10-19T11:47:50.468Z,1.23
2018-10-19T11:52:54.189Z,1.90
2018-10-19T11:57:57.826Z,1.00
2018-10-19T12:03:01.551Z,1.10
2018-10-19T12:08:05.538Z,1.90
2018-10-19T12:13:10.365Z,1.87
2018-10-19T12:18:14.209Z,1.10
2018-10-19T12:23:18.333Z,2.77
2018-10-19T12:28:23.025Z,1.07
2018-10-19T12:33:26.836Z,2.10
2018-10-19T12:38:30.951Z,1.60
2018-10-19T12:43:34.647Z,1.70
2018-10-19T12:48:38.275Z,1.10
2018-10-19T12:53:42.003Z,1.80
2018-10-19T12:58:45.729Z,1.30
2018-10-19T13:03:49.356Z,1.57
2018-10-19T13:08:53.157Z,1.37
2018-10-19T13:13:56.800Z,1.53
2018-10-19T13:19:00.463Z,1.30
2018-10-19T13:24:04.675Z,1.70
2018-10-19T13:29:08.272Z,1.60
2018-10-19T13:34:11.957Z,1.07
2018-10-19T13:39:15.606Z,2.00
2018-10-19T13:44:19.196Z,1.53
2018-10-19T13:49:23.027Z,2.10
2018-10-19T13:54:27.464Z,1.17
2018-10-19T13:59:31.167Z,1.50
2018-10-19T14:04:35.021Z,1.80
2018-10-19T14:09:39.018Z,1.60
2018-10-19T14:14:42.783Z,1.33
2018-10-19T14:19:46.583Z,1.17
2018-10-19T14:24:50.397Z,1.50
2018-10-19T14:29:54.026Z,1.37
2018-10-19T14:34:57.884Z,2.80
2018-10-19T14:40:01.464Z,0.90
2018-10-19T14:45:06.250Z,1.10
2018-10-19T14:50:11.763Z,1.33
2018-10-19T14:55:16.893Z,1.40
2018-10-19T15:00:20.528Z,1.17
2018-10-19T15:05:24.232Z,1.60
2018-10-19T15:10:28.117Z,1.40
2018-10-19T15:15:31.560Z,1.87
2018-10-19T15:20:35.203Z,1.47
2018-10-19T15:25:38.888Z,1.67
2018-10-19T15:30:42.527Z,1.10
2018-10-19T15:35:46.344Z,1.43
2018-10-19T15:40:50.035Z,1.00
2018-10-19T15:45:53.767Z,0.93
2018-10-19T15:50:57.568Z,1.30
2018-10-19T15:56:01.168Z,1.53
2018-10-19T16:01:05.175Z,1.20
2018-10-19T16:06:08.877Z,1.70
2018-10-19T16:11:12.485Z,1.73
2018-10-19T16:16:16.163Z,1.30
2018-10-19T16:21:19.819Z,2.00
2018-10-19T16:26:23.539Z,1.30
2018-10-19T16:31:27.405Z,1.80
2018-10-19T16:36:31.116Z,1.10
2018-10-19T16:41:34.770Z,2.10
2018-10-19T16:46:38.375Z,1.63
2018-10-19T16:51:42.016Z,1.57
2018-10-19T16:56:45.692Z,1.70
2018-10-19T17:01:49.355Z,1.47
2018-10-19T17:06:52.983Z,1.73
2018-10-19T17:11:56.734Z,1.83
2018-10-19T17:17:00.491Z,1.70
2018-10-19T17:22:04.380Z,2.80
2018-10-19T17:27:08.450Z,2.07
2018-10-19T17:32:12.101Z,2.17
2018-10-19T17:37:16.355Z,2.33
2018-10-19T17:42:20.069Z,2.30
2018-10-19T17:47:23.828Z,2.50
2018-10-19T17:52:27.470Z,2.00
2018-10-19T17:57:31.089Z,2.63
2018-10-19T18:02:34.772Z,2.60
2018-10-19T18:07:38.874Z,2.80
2018-10-19T18:12:42.459Z,3.03
2018-10-19T18:17:46.104Z,2.40
2018-10-19T18:22:49.874Z,2.80
2018-10-19T18:27:53.490Z,3.27
2018-10-19T18:32:57.052Z,2.60
2018-10-19T18:38:00.775Z,3.27
2018-10-19T18:43:04.613Z,2.80
2018-10-19T18:48:08.214Z,2.77
2018-10-19T18:53:12.064Z,2.80
2018-10-19T18:58:15.653Z,2.63
2018-10-19T19:03:19.279Z,3.10
2018-10-19T19:08:22.915Z,3.13
2018-10-19T19:13:29.151Z,3.27
2018-10-19T19:18:32.874Z,3.10
2018-10-19T19:23:40.752Z,3.40
2018-10-19T19:28:44.389Z,2.77
2018-10-19T19:33:53.612Z,4.03
2018-10-19T19:38:57.256Z,4.57
2018-10-19T19:44:00.953Z,4.07
2018-10-19T19:49:10.694Z,4.77
2018-10-19T19:54:14.352Z,4.97
2018-10-19T19:59:18.132Z,5.70
2018-10-19T20:04:21.645Z,4.80
2018-10-19T20:09:25.336Z,4.67
2018-10-19T20:14:29.060Z,4.77
2018-10-19T20:19:32.719Z,4.10
2018-10-19T20:24:36.379Z,5.27
2018-10-19T20:29:39.996Z,4.60
2018-10-19T20:34:43.656Z,4.33
2018-10-19T20:39:47.320Z,5.07
2018-10-19T20:44:50.971Z,5.33
2018-10-19T20:49:54.643Z,5.00
2018-10-19T20:54:58.234Z,5.20
2018-10-19T21:00:01.857Z,5.90
2018-10-19T21:05:06.612Z,4.53
2018-10-19T21:10:11.500Z,4.83
2018-10-19T21:15:15.145Z,4.60
2018-10-19T21:20:18.770Z,5.33
2018-10-19T21:25:22.407Z,4.90
2018-10-19T21:30:26.096Z,5.00
2018-10-19T21:35:29.872Z,5.23
2018-10-19T21:40:33.531Z,5.47
2018-10-19T21:45:37.500Z,5.43
2018-10-19T21:50:41.766Z,5.50
2018-10-19T21:55:45.772Z,5.47
2018-10-19T22:00:49.572Z,5.53
2018-10-19T22:05:53.674Z,5.73
2018-10-19T22:10:59.083Z,5.03
2018-10-19T22:16:02.676Z,5.43
2018-10-19T22:21:06.299Z,5.00
2018-10-19T22:26:15.378Z,5.40
2018-10-19T22:31:18.947Z,5.60
2018-10-19T22:36:22.574Z,5.00
2018-10-19T22:41:26.180Z,5.20
2018-10-19T22:46:29.807Z,5.27
2018-10-19T22:51:33.432Z,5.70
2018-10-19T22:56:37.095Z,4.90
2018-10-19T23:01:40.711Z,5.13
2018-10-19T23:06:44.376Z,5.60
2018-10-19T23:11:47.999Z,5.30
2018-10-19T23:16:51.632Z,5.13
2018-10-19T23:21:55.272Z,4.70
2018-10-19T23:26:59.063Z,4.70
2018-10-19T23:32:02.691Z,4.83
2018-10-19T23:37:06.358Z,5.30
2018-10-19T23:42:10.023Z,4.57
2018-10-19T23:47:13.753Z,4.60
2018-10-19T23:52:17.350Z,5.10
2018-10-19T23:57:21.074Z,5.10
